Accueil
METAR-TAF:

METAR-TAF

Aéroports :

Sion, Suisse

Aéroport de Sion

latitude: 46-13N, longitude: 007-20E, altitude: 482 m

Observation

Le bulletin a été fait il y a 32 minutes, à 10:20 UTC
Vent 6 kt de ouest/sud-ouest
Température 19°C
Humidité 60%
Pression 1002 hPa
Visibilité 10 km ou plus
Quelques nuages à une hauteur de 2000 ft
Nuages épars à une hauteur de 7000 ft
Nuages fragmentés à une hauteur de 15000 ft

METAR: LSGS 291020Z 24006KT 9999 FEW020 SCT070 BKN150 19/11 Q1002

Heure: 12:52 (10:52 UTC)

Prévision

Le bulletin a été fait il y a 2 heures et 27 minutes, à 08:25 UTC
Prévision valable du 29 à 09 UTC au 29 à 18 UTC
Vent 1 kt de direction variable
Visibilité 10 km ou plus
Nuages épars à une hauteur de 8000 ft
Evoluant progressivement
du 29 à 10 UTC au 29 à 12 UTC
Vent 15 kt de ouest/sud-ouest avec des rafales jusqu'à 30 kt

TAF: LSGS 290825Z 2909/2918 VRB01KT 9999 SCT080 BECMG 2910/2912 25015G30KT

Observations et prévisions météorologiques de plus de 4000 aéroports (messages METAR et TAF).

Les stations disponibles sont représentées par des disques jaunes et rouges sur la carte.

Passer la souris dessus pour voir le nom de la station.

Cliquer dessus pour voir les observations et prévisions météorologiques.

Pour changer de carte: cliquez sur les boutons verts avec une croix noire pour zoomer, sur le bouton vert avec un tiret pour effectuer un zoom arrière, ou sur les flèches vertes pour les cartes adjacentes.


METAR-TAF: